Terminal Aerodrome Forecast
Issued by NWS

Home | Current Version | Previous Version | Text Only | Print | Product List | Glossary On
Versions: 1 2 3 4 5 6 7 8 9 10 11 12 13 14 15 16 17 18 19 20 21
000
FTUS43 KDVN 220555 AAA
TAFBRL
TAF AMD
KBRL 220555Z 2206/2306 19006KT 1/4SM FG VV001
      TEMPO 2206/2210 1SM BR BKN002
     FM221600 20009G16KT P6SM SKC
     FM230000 20008KT P6SM SKC=

USA.gov is the U.S. government's official web portal to all federal, state and local government web resources and services.